createdAt,value
2024-04-18T00:00:05.450Z,81.71
2024-04-18T00:02:38.227Z,81.94
2024-04-18T00:05:05.127Z,82.50
2024-04-18T00:07:31.873Z,82.70
2024-04-18T00:10:14.566Z,82.35
2024-04-18T00:12:41.623Z,81.87
2024-04-18T00:15:21.990Z,81.95
2024-04-18T00:17:54.932Z,81.89
2024-04-18T00:20:25.107Z,82.23
2024-04-18T00:22:54.174Z,82.33
2024-04-18T00:25:28.069Z,81.57
2024-04-18T00:27:54.900Z,81.13
2024-04-18T00:30:40.640Z,81.23
2024-04-18T00:33:07.347Z,81.49
2024-04-18T00:35:40.492Z,81.11
2024-04-18T00:38:13.638Z,80.91
2024-04-18T00:40:43.729Z,81.14
2024-04-18T00:43:16.867Z,80.78
2024-04-18T00:45:44.303Z,80.61
2024-04-18T00:48:21.911Z,80.32
2024-04-18T00:50:53.278Z,80.06
2024-04-18T00:53:20.830Z,80.37
2024-04-18T00:55:51.388Z,80.38
2024-04-18T00:58:18.024Z,80.61
2024-04-18T01:00:47.285Z,80.80
2024-04-18T01:03:32.702Z,80.67
2024-04-18T01:06:07.750Z,80.00
2024-04-18T01:08:53.847Z,79.99
2024-04-18T01:11:33.536Z,79.71
2024-04-18T01:14:10.340Z,79.76
2024-04-18T01:16:55.796Z,80.21
2024-04-18T01:19:22.426Z,80.24
2024-04-18T01:21:49.292Z,79.86
2024-04-18T01:24:16.225Z,79.13
2024-04-18T01:26:42.928Z,78.88
2024-04-18T01:29:09.571Z,78.83
2024-04-18T01:31:36.225Z,78.90
2024-04-18T01:34:02.874Z,78.70
2024-04-18T01:36:29.650Z,78.72
2024-04-18T01:39:16.587Z,78.66
2024-04-18T01:41:43.412Z,78.67
2024-04-18T01:44:30.183Z,79.04
2024-04-18T01:47:15.459Z,78.13
2024-04-18T01:50:02.082Z,77.88
2024-04-18T01:52:28.722Z,78.15
2024-04-18T01:55:02.977Z,77.69
2024-04-18T01:57:36.725Z,77.17
2024-04-18T02:00:22.007Z,77.39
2024-04-18T02:02:48.762Z,77.71
2024-04-18T02:05:35.335Z,77.69
2024-04-18T02:08:14.007Z,77.30
2024-04-18T02:10:46.696Z,78.03
2024-04-18T02:13:36.057Z,79.04
2024-04-18T02:16:02.880Z,79.76
2024-04-18T02:18:46.998Z,79.32
2024-04-18T02:21:13.919Z,79.89
2024-04-18T02:23:53.188Z,80.04
2024-04-18T02:26:20.182Z,80.23
2024-04-18T02:28:46.823Z,80.21
2024-04-18T02:31:19.605Z,80.01
2024-04-18T02:33:53.095Z,79.93
2024-04-18T02:36:20.490Z,80.10
2024-04-18T02:38:47.142Z,79.94
2024-04-18T02:41:13.758Z,79.93
2024-04-18T02:43:51.150Z,80.09
2024-04-18T02:46:17.789Z,79.51
2024-04-18T02:49:03.295Z,80.03
2024-04-18T02:51:29.973Z,79.40
2024-04-18T02:54:34.735Z,79.21
2024-04-18T02:57:01.382Z,79.04
2024-04-18T02:59:28.063Z,79.42
2024-04-18T03:01:54.648Z,79.18
2024-04-18T03:04:21.315Z,79.37
2024-04-18T03:06:49.070Z,78.97
2024-04-18T03:09:16.554Z,79.18
2024-04-18T03:11:55.737Z,79.08
2024-04-18T03:14:41.533Z,79.20
2024-04-18T03:17:09.089Z,79.41
2024-04-18T03:19:54.538Z,79.56
2024-04-18T03:22:27.425Z,78.65
2024-04-18T03:25:02.701Z,79.24
2024-04-18T03:27:30.776Z,78.95
2024-04-18T03:29:58.196Z,79.13
2024-04-18T03:32:37.538Z,79.21
2024-04-18T03:35:05.195Z,78.92
2024-04-18T03:37:32.543Z,78.91
2024-04-18T03:40:20.859Z,78.82
2024-04-18T03:43:00.907Z,78.75
2024-04-18T03:45:28.420Z,78.60
2024-04-18T03:48:15.065Z,78.10
2024-04-18T03:50:44.740Z,78.68
2024-04-18T03:53:21.172Z,78.75
2024-04-18T03:55:47.829Z,78.96
2024-04-18T03:58:14.456Z,78.24
2024-04-18T04:00:50.780Z,78.61
2024-04-18T04:03:17.614Z,78.51
2024-04-18T04:05:44.284Z,78.92
2024-04-18T04:08:10.903Z,78.57
2024-04-18T04:10:43.666Z,78.39
2024-04-18T04:13:11.019Z,78.17
2024-04-18T04:15:47.755Z,78.74
2024-04-18T04:18:33.237Z,78.57
2024-04-18T04:21:16.791Z,78.56
2024-04-18T04:23:44.103Z,77.88
2024-04-18T04:26:10.696Z,77.98
2024-04-18T04:28:37.294Z,78.05
2024-04-18T04:31:04.111Z,77.49
2024-04-18T04:33:34.456Z,78.01
2024-04-18T04:36:01.123Z,77.78
2024-04-18T04:38:27.788Z,78.02
2024-04-18T04:40:54.442Z,78.27
2024-04-18T04:43:21.418Z,77.78
2024-04-18T04:45:48.135Z,77.47
2024-04-18T04:48:35.726Z,77.28
2024-04-18T04:51:11.679Z,77.67
2024-04-18T04:53:38.317Z,77.18
2024-04-18T04:56:04.935Z,77.49
2024-04-18T04:58:31.679Z,76.83
2024-04-18T05:00:58.484Z,77.16
2024-04-18T05:03:51.695Z,76.94
2024-04-18T05:06:24.864Z,76.63
2024-04-18T05:09:10.944Z,76.58
2024-04-18T05:11:37.882Z,77.02
2024-04-18T05:14:24.503Z,77.21
2024-04-18T05:16:51.337Z,76.71
2024-04-18T05:19:21.009Z,76.75
2024-04-18T05:21:47.950Z,76.51
2024-04-18T05:24:32.897Z,76.57
2024-04-18T05:26:59.485Z,76.66
2024-04-18T05:29:44.536Z,76.45
2024-04-18T05:32:11.190Z,75.71
2024-04-18T05:34:37.785Z,75.60
2024-04-18T05:37:04.599Z,76.22
2024-04-18T05:39:31.214Z,76.29
2024-04-18T05:41:58.076Z,77.14
2024-04-18T05:44:39.759Z,77.67
2024-04-18T05:47:07.001Z,78.02
2024-04-18T05:49:33.820Z,78.19
2024-04-18T05:52:00.719Z,78.03
2024-04-18T05:54:31.250Z,77.66
2024-04-18T05:57:05.459Z,76.99
2024-04-18T05:59:51.552Z,76.03
2024-04-18T06:02:18.590Z,76.27
2024-04-18T06:04:45.336Z,75.98
2024-04-18T06:07:31.679Z,76.01
2024-04-18T06:09:58.879Z,75.54
2024-04-18T06:12:25.810Z,75.32
2024-04-18T06:14:52.474Z,75.14
2024-04-18T06:17:19.049Z,75.46
2024-04-18T06:19:52.198Z,75.75
2024-04-18T06:22:27.908Z,75.07
2024-04-18T06:25:14.625Z,75.43
2024-04-18T06:27:41.371Z,74.89
2024-04-18T06:30:08.724Z,74.58
2024-04-18T06:32:35.524Z,74.75
2024-04-18T06:35:02.183Z,75.03
2024-04-18T06:37:28.839Z,74.56
2024-04-18T06:39:55.589Z,74.11
2024-04-18T06:42:22.265Z,72.94
2024-04-18T06:44:48.938Z,72.32
2024-04-18T06:47:15.714Z,72.34
2024-04-18T06:50:02.340Z,72.81
2024-04-18T06:52:28.945Z,72.07
2024-04-18T06:54:55.621Z,71.07
2024-04-18T06:57:41.105Z,71.50
2024-04-18T07:00:09.086Z,70.91
2024-04-18T07:02:35.929Z,70.84
2024-04-18T07:05:22.247Z,70.28
2024-04-18T07:07:52.423Z,70.88
2024-04-18T07:10:31.653Z,71.65
2024-04-18T07:12:58.558Z,71.56
2024-04-18T07:15:25.457Z,69.37
2024-04-18T07:18:10.752Z,68.80
2024-04-18T07:20:37.389Z,68.55
2024-04-18T07:23:06.883Z,67.35
2024-04-18T07:25:33.661Z,68.13
2024-04-18T07:28:00.407Z,67.48
2024-04-18T07:30:27.071Z,67.40
2024-04-18T07:32:53.724Z,67.88
2024-04-18T07:35:39.046Z,66.79
2024-04-18T07:38:06.300Z,66.75
2024-04-18T07:40:32.909Z,65.98
2024-04-18T07:42:59.522Z,65.21
2024-04-18T07:45:26.368Z,63.99
2024-04-18T07:47:53.068Z,63.82
2024-04-18T07:50:19.735Z,63.85
2024-04-18T07:52:53.043Z,62.37
2024-04-18T07:55:27.276Z,62.73
2024-04-18T07:57:54.191Z,61.90
2024-04-18T08:00:23.102Z,62.81
2024-04-18T08:02:52.164Z,64.12
2024-04-18T08:05:22.191Z,62.54
2024-04-18T08:07:53.151Z,62.63
2024-04-18T08:10:24.540Z,63.03
2024-04-18T08:12:58.229Z,63.93
2024-04-18T08:18:14.046Z,63.29
2024-04-18T08:20:41.790Z,61.61
2024-04-18T08:23:08.593Z,63.29
2024-04-18T08:25:35.452Z,64.67
2024-04-18T08:28:02.057Z,64.05
2024-04-18T08:30:29.185Z,62.79
2024-04-18T08:32:55.902Z,62.79
2024-04-18T08:35:22.574Z,62.41
2024-04-18T08:37:49.460Z,64.23
2024-04-18T08:40:16.088Z,65.00
2024-04-18T08:42:42.699Z,64.71
2024-04-18T08:45:10.016Z,63.21
2024-04-18T08:47:39.452Z,63.58
2024-04-18T08:50:06.646Z,64.58
2024-04-18T08:52:38.451Z,65.04
2024-04-18T08:55:05.598Z,65.50
2024-04-18T08:57:38.629Z,64.10
2024-04-18T09:00:05.877Z,63.03
2024-04-18T09:02:32.525Z,63.06
2024-04-18T09:04:59.964Z,61.20
2024-04-18T09:07:26.560Z,61.64
2024-04-18T09:10:06.235Z,61.15
2024-04-18T09:12:33.586Z,61.04
2024-04-18T09:15:00.285Z,59.02
2024-04-18T09:17:28.407Z,59.58
2024-04-18T09:19:55.558Z,59.16
2024-04-18T09:22:22.362Z,59.37
2024-04-18T09:24:49.005Z,61.68
2024-04-18T09:27:16.411Z,60.31
2024-04-18T09:29:45.219Z,61.01
2024-04-18T09:32:16.021Z,61.59
2024-04-18T09:34:45.088Z,62.70
2024-04-18T09:37:16.101Z,61.80
2024-04-18T09:39:45.335Z,61.74
2024-04-18T09:42:38.120Z,61.88
2024-04-18T09:45:05.502Z,60.67
2024-04-18T09:47:32.553Z,60.13
2024-04-18T09:50:00.291Z,59.74
2024-04-18T09:52:27.973Z,59.18
2024-04-18T09:54:56.870Z,59.13
2024-04-18T09:57:24.796Z,56.60
2024-04-18T09:59:51.731Z,56.23
2024-04-18T10:02:22.230Z,56.17
2024-04-18T10:04:50.339Z,53.71
2024-04-18T10:07:19.659Z,52.37
2024-04-18T10:09:48.631Z,54.38
2024-04-18T10:12:15.508Z,55.48
2024-04-18T10:14:42.698Z,55.78
2024-04-18T10:17:22.818Z,56.70
2024-04-18T10:19:52.264Z,59.47
2024-04-18T10:22:29.417Z,61.42
2024-04-18T10:25:04.017Z,61.11
2024-04-18T10:27:30.778Z,61.70
2024-04-18T10:30:01.262Z,61.74
2024-04-18T10:32:29.697Z,61.90
2024-04-18T10:34:56.527Z,59.27
2024-04-18T10:37:24.091Z,57.05
2024-04-18T10:39:53.150Z,55.75
2024-04-18T10:42:21.672Z,55.08
2024-04-18T10:44:49.132Z,53.11
2024-04-18T10:47:19.562Z,54.06
2024-04-18T10:49:46.715Z,53.27
2024-04-18T10:52:17.823Z,52.48
2024-04-18T10:54:45.485Z,51.80
2024-04-18T10:57:12.248Z,51.96
2024-04-18T10:59:39.531Z,52.93
2024-04-18T11:02:07.488Z,54.81
2024-04-18T11:04:34.394Z,56.77
2024-04-18T11:07:02.133Z,57.60
2024-04-18T11:09:29.218Z,57.24
2024-04-18T11:11:56.166Z,55.73
2024-04-18T11:14:22.872Z,55.61
2024-04-18T11:17:02.124Z,52.48
2024-04-18T11:19:30.268Z,51.83
2024-04-18T11:22:00.826Z,51.59
2024-04-18T11:24:28.423Z,49.71
2024-04-18T11:26:55.038Z,50.81
2024-04-18T11:29:28.797Z,52.24
2024-04-18T11:32:12.792Z,52.54
2024-04-18T11:34:44.093Z,52.08
2024-04-18T11:37:14.819Z,50.29
2024-04-18T11:39:42.108Z,51.03
2024-04-18T11:42:09.042Z,50.40
2024-04-18T11:44:35.774Z,50.95
2024-04-18T11:47:02.882Z,50.38
2024-04-18T11:49:29.777Z,55.31
2024-04-18T11:51:56.424Z,58.36
2024-04-18T11:54:23.062Z,57.49
2024-04-18T11:56:49.672Z,59.64
2024-04-18T11:59:34.847Z,62.12
2024-04-18T12:02:01.564Z,60.62
2024-04-18T12:04:28.283Z,60.33
2024-04-18T12:06:55.455Z,54.91
2024-04-18T12:09:28.822Z,51.77
2024-04-18T12:11:59.622Z,50.83
2024-04-18T12:14:47.544Z,52.90
2024-04-18T12:17:30.667Z,53.87
2024-04-18T12:20:16.796Z,55.46
2024-04-18T12:22:43.414Z,58.49
2024-04-18T12:25:17.016Z,61.10
2024-04-18T12:27:44.204Z,61.42
2024-04-18T12:30:30.823Z,61.31
2024-04-18T12:33:16.904Z,58.09
2024-04-18T12:35:43.826Z,45.69
2024-04-18T12:38:10.512Z,38.80
2024-04-18T12:40:43.698Z,32.34
2024-04-18T12:43:10.369Z,31.78
2024-04-18T12:46:00.632Z,27.59
2024-04-18T12:48:58.152Z,28.83
2024-04-18T12:51:25.197Z,28.89
2024-04-18T12:53:54.690Z,30.59
2024-04-18T12:56:42.732Z,27.90
2024-04-18T12:59:21.398Z,34.52
2024-04-18T13:01:48.135Z,39.18
2024-04-18T13:04:20.871Z,42.29
2024-04-18T13:06:47.679Z,38.67
2024-04-18T13:09:30.452Z,41.85
2024-04-18T13:12:02.003Z,46.45
2024-04-18T13:14:48.656Z,48.01
2024-04-18T13:17:15.433Z,48.02
2024-04-18T13:19:48.713Z,37.18
2024-04-18T13:22:15.877Z,37.82
2024-04-18T13:24:42.605Z,34.40
2024-04-18T13:27:24.849Z,29.09
2024-04-18T13:29:55.918Z,20.62
2024-04-18T13:32:33.271Z,19.76
2024-04-18T13:34:59.987Z,21.31
2024-04-18T13:37:26.566Z,18.97
2024-04-18T13:40:12.419Z,18.93
2024-04-18T13:42:59.709Z,17.50
2024-04-18T13:45:34.975Z,15.98
2024-04-18T13:48:05.330Z,15.23
2024-04-18T13:50:45.119Z,17.05
2024-04-18T13:53:12.570Z,19.39
2024-04-18T13:55:46.379Z,20.43
2024-04-18T13:58:13.027Z,22.62
2024-04-18T14:01:00.187Z,18.38
2024-04-18T14:03:27.365Z,22.63
2024-04-18T14:06:03.505Z,24.52
2024-04-18T14:08:37.175Z,29.06
2024-04-18T14:11:24.109Z,31.41
2024-04-18T14:14:05.749Z,34.67
2024-04-18T14:16:51.241Z,31.76
2024-04-18T14:19:33.392Z,34.94
2024-04-18T14:22:09.222Z,36.93
2024-04-18T14:24:36.777Z,35.41
2024-04-18T14:27:03.750Z,31.56
2024-04-18T14:29:30.372Z,28.94
2024-04-18T14:31:59.097Z,29.42
2024-04-18T14:34:48.334Z,33.25
2024-04-18T14:37:17.137Z,37.28
2024-04-18T14:39:43.952Z,40.34
2024-04-18T14:42:10.639Z,45.36
2024-04-18T14:44:37.273Z,48.13
2024-04-18T14:47:13.919Z,49.70
2024-04-18T14:50:00.272Z,53.21
2024-04-18T14:52:32.924Z,57.06
2024-04-18T14:54:59.564Z,59.21
2024-04-18T14:57:32.049Z,61.31
2024-04-18T15:00:16.944Z,64.14
2024-04-18T15:02:43.651Z,64.53
2024-04-18T15:05:30.927Z,63.55
2024-04-18T15:08:00.866Z,66.24
2024-04-18T15:10:46.367Z,66.90
2024-04-18T15:13:13.165Z,66.19
2024-04-18T15:15:42.402Z,65.34
2024-04-18T15:18:09.171Z,65.22
2024-04-18T15:20:35.937Z,49.04
2024-04-18T15:23:09.274Z,37.51
2024-04-18T15:25:35.956Z,31.37
2024-04-18T15:28:02.985Z,23.49
2024-04-18T15:30:29.716Z,20.82
2024-04-18T15:33:12.679Z,24.49
2024-04-18T15:35:41.901Z,23.21
2024-04-18T15:38:17.740Z,26.13
2024-04-18T15:41:03.030Z,30.53
2024-04-18T15:43:35.386Z,34.16
2024-04-18T15:46:04.304Z,38.94
2024-04-18T15:48:31.019Z,41.45
2024-04-18T15:50:58.154Z,48.17
2024-04-18T15:53:31.458Z,49.21
2024-04-18T15:56:08.054Z,52.00
2024-04-18T15:58:53.921Z,53.27
2024-04-18T16:01:22.173Z,55.86
2024-04-18T16:04:09.290Z,58.51
2024-04-18T16:06:55.137Z,60.92
2024-04-18T16:09:40.824Z,60.64
2024-04-18T16:12:19.693Z,62.44
2024-04-18T16:14:59.879Z,62.50
2024-04-18T16:17:26.527Z,62.75
2024-04-18T16:20:13.519Z,63.81
2024-04-18T16:22:40.364Z,65.24
2024-04-18T16:25:25.715Z,66.31
2024-04-18T16:27:52.534Z,63.91
2024-04-18T16:30:20.771Z,61.64
2024-04-18T16:32:50.591Z,59.43
2024-04-18T16:35:17.462Z,60.07
2024-04-18T16:38:07.344Z,56.40
2024-04-18T16:40:50.134Z,51.46
2024-04-18T16:43:30.231Z,39.59
2024-04-18T16:45:56.922Z,36.62
2024-04-18T16:48:23.628Z,33.43
2024-04-18T16:50:50.384Z,28.33
2024-04-18T16:53:17.053Z,26.82
2024-04-18T16:55:43.867Z,25.00
2024-04-18T16:58:17.437Z,24.41
2024-04-18T17:00:58.443Z,23.03
2024-04-18T17:03:26.307Z,25.21
2024-04-18T17:06:03.372Z,24.09
2024-04-18T17:08:30.360Z,23.63
2024-04-18T17:10:57.378Z,23.60
2024-04-18T17:13:42.495Z,23.16
2024-04-18T17:16:09.752Z,24.55
2024-04-18T17:18:36.659Z,26.93
2024-04-18T17:21:03.938Z,29.51
2024-04-18T17:23:30.715Z,32.37
2024-04-18T17:25:57.354Z,34.81
2024-04-18T17:28:25.281Z,36.62
2024-04-18T17:31:04.906Z,38.51
2024-04-18T17:33:31.638Z,40.17
2024-04-18T17:35:58.944Z,43.39
2024-04-18T17:38:44.953Z,44.69
2024-04-18T17:41:30.269Z,44.01
2024-04-18T17:44:16.132Z,46.03
2024-04-18T17:46:56.427Z,47.36
2024-04-18T17:49:23.369Z,49.72
2024-04-18T17:51:51.599Z,52.24
2024-04-18T17:54:18.662Z,54.18
2024-04-18T17:56:45.609Z,56.16
2024-04-18T17:59:15.789Z,58.78
2024-04-18T18:01:44.111Z,59.84
2024-04-18T18:04:12.255Z,61.23
2024-04-18T18:06:39.170Z,62.25
2024-04-18T18:09:12.410Z,64.21
2024-04-18T18:11:39.131Z,65.72
2024-04-18T18:14:06.541Z,66.56
2024-04-18T18:16:52.007Z,67.48
2024-04-18T18:19:18.764Z,68.26
2024-04-18T18:21:57.279Z,68.74
2024-04-18T18:24:23.948Z,69.44
2024-04-18T18:26:50.644Z,70.04
2024-04-18T18:29:18.568Z,70.71
2024-04-18T18:32:04.580Z,71.33
2024-04-18T18:34:33.190Z,71.62
2024-04-18T18:36:59.805Z,72.01
2024-04-18T18:39:26.863Z,72.78
2024-04-18T18:41:53.520Z,73.34
2024-04-18T18:44:21.415Z,73.32
2024-04-18T18:46:48.059Z,73.61
2024-04-18T18:49:15.469Z,73.46
2024-04-18T18:51:44.612Z,74.27
2024-04-18T18:54:12.069Z,74.70
2024-04-18T18:56:39.104Z,75.08
2024-04-18T18:59:24.303Z,75.29
2024-04-18T19:01:50.924Z,75.75
2024-04-18T19:04:23.793Z,76.15
2024-04-18T19:06:52.882Z,76.17
2024-04-18T19:09:20.140Z,76.69
2024-04-18T19:11:46.849Z,76.58
2024-04-18T19:14:13.627Z,76.56
2024-04-18T19:17:02.946Z,77.44
2024-04-18T19:19:30.029Z,78.10
2024-04-18T19:21:56.809Z,78.35
2024-04-18T19:24:23.541Z,78.67
2024-04-18T19:27:02.147Z,79.11
2024-04-18T19:29:39.615Z,78.58
2024-04-18T19:32:13.638Z,78.94
2024-04-18T19:34:40.353Z,79.13
2024-04-18T19:37:06.989Z,78.74
2024-04-18T19:39:33.727Z,79.23
2024-04-18T19:42:01.156Z,79.19
2024-04-18T19:44:28.235Z,79.71
2024-04-18T19:46:55.145Z,80.18
2024-04-18T19:49:21.779Z,80.29
2024-04-18T19:52:01.578Z,80.35
2024-04-18T19:54:30.636Z,80.90
2024-04-18T19:56:57.460Z,80.33
2024-04-18T19:59:24.084Z,80.71
2024-04-18T20:01:50.719Z,80.47
2024-04-18T20:04:17.454Z,80.82
2024-04-18T20:06:44.202Z,80.72
2024-04-18T20:09:10.981Z,80.46
2024-04-18T20:11:37.675Z,80.26
2024-04-18T20:14:04.390Z,80.26
2024-04-18T20:16:31.026Z,80.12
2024-04-18T20:19:14.355Z,80.13
2024-04-18T20:21:43.781Z,79.78
2024-04-18T20:24:11.965Z,79.80
2024-04-18T20:26:57.043Z,79.82
2024-04-18T20:29:43.646Z,79.86
2024-04-18T20:32:24.644Z,80.13
2024-04-18T20:34:52.042Z,80.03
2024-04-18T20:37:19.015Z,80.75
2024-04-18T20:39:46.394Z,80.68
2024-04-18T20:42:14.060Z,80.18
2024-04-18T20:44:58.974Z,80.39
2024-04-18T20:47:25.642Z,80.07
2024-04-18T20:49:52.293Z,79.77
2024-04-18T20:52:18.888Z,79.72
2024-04-18T20:54:49.975Z,78.93
2024-04-18T20:57:16.686Z,78.89
2024-04-18T20:59:43.590Z,77.71
2024-04-18T21:02:10.403Z,78.00
2024-04-18T21:04:37.339Z,78.14
2024-04-18T21:07:04.066Z,78.21
2024-04-18T21:09:30.863Z,78.02
2024-04-18T21:11:58.660Z,78.49
2024-04-18T21:14:25.380Z,78.00
2024-04-18T21:16:52.057Z,77.49
2024-04-18T21:19:21.636Z,77.58
2024-04-18T21:21:49.155Z,77.67
2024-04-18T21:24:16.869Z,78.07
2024-04-18T21:26:47.578Z,78.02
2024-04-18T21:29:14.509Z,77.83
2024-04-18T21:31:41.199Z,78.05
2024-04-18T21:34:08.911Z,78.19
2024-04-18T21:36:38.862Z,78.40
2024-04-18T21:39:06.117Z,78.76
2024-04-18T21:41:35.615Z,79.23
2024-04-18T21:44:02.324Z,79.67
2024-04-18T21:46:29.220Z,79.73
2024-04-18T21:48:56.016Z,80.40
2024-04-18T21:51:22.941Z,80.41
2024-04-18T21:53:49.664Z,80.50
2024-04-18T21:56:16.407Z,80.64
2024-04-18T21:58:43.120Z,80.77
2024-04-18T22:01:29.804Z,80.44
2024-04-18T22:03:56.579Z,80.64
2024-04-18T22:06:23.327Z,80.48
2024-04-18T22:08:50.057Z,80.65
2024-04-18T22:11:16.761Z,80.56
2024-04-18T22:13:43.459Z,79.90
2024-04-18T22:16:10.141Z,80.16
2024-04-18T22:18:37.032Z,80.20
2024-04-18T22:21:04.179Z,80.04
2024-04-18T22:23:30.861Z,79.64
2024-04-18T22:25:57.655Z,79.19
2024-04-18T22:28:24.349Z,79.31
2024-04-18T22:30:58.245Z,79.37
2024-04-18T22:33:25.012Z,79.04
2024-04-18T22:35:55.506Z,78.61
2024-04-18T22:38:22.377Z,78.56
2024-04-18T22:40:49.669Z,78.41
2024-04-18T22:43:16.383Z,78.48
2024-04-18T22:45:43.266Z,78.77
2024-04-18T22:48:10.199Z,78.57
2024-04-18T22:50:37.160Z,78.69
2024-04-18T22:53:04.038Z,78.71
2024-04-18T22:55:30.950Z,78.63
2024-04-18T22:58:01.236Z,79.10
2024-04-18T23:00:29.473Z,78.99
2024-04-18T23:02:56.317Z,78.94
2024-04-18T23:05:38.270Z,79.16
2024-04-18T23:08:05.325Z,78.99
2024-04-18T23:10:33.315Z,78.88
2024-04-18T23:13:00.245Z,78.64
2024-04-18T23:15:45.329Z,79.05
2024-04-18T23:18:12.321Z,78.83
2024-04-18T23:20:39.620Z,78.88
2024-04-18T23:23:06.376Z,78.90
2024-04-18T23:25:33.096Z,79.02
2024-04-18T23:27:59.831Z,78.46
2024-04-18T23:30:26.582Z,78.39
2024-04-18T23:32:53.375Z,78.38
2024-04-18T23:35:20.339Z,78.40
2024-04-18T23:37:47.033Z,78.72
2024-04-18T23:40:13.752Z,78.50
2024-04-18T23:42:40.505Z,78.38
2024-04-18T23:45:07.431Z,78.38
2024-04-18T23:47:34.197Z,78.80
2024-04-18T23:50:01.680Z,78.62
2024-04-18T23:52:28.406Z,78.70
2024-04-18T23:54:55.097Z,79.15
2024-04-18T23:57:21.919Z,79.56
2024-04-18T23:59:48.619Z,79.95
